sensor_id;sensor_type;location;lat;lon;timestamp;pressure;altitude;pressure_sealevel;temperature;humidity
39699;BME280;25372;50.582;12.250;2024-01-27T00:00:45;100874.09;;;2.24;85.71
39699;BME280;25372;50.582;12.250;2024-01-27T00:11:08;100881.94;;;2.23;87.08
39699;BME280;25372;50.582;12.250;2024-01-27T00:21:29;100881.22;;;2.10;88.13
39699;BME280;25372;50.582;12.250;2024-01-27T00:31:51;100899.34;;;2.12;87.75
39699;BME280;25372;50.582;12.250;2024-01-27T00:42:14;100902.00;;;2.07;88.44
39699;BME280;25372;50.582;12.250;2024-01-27T00:52:37;100923.50;;;2.12;87.75
39699;BME280;25372;50.582;12.250;2024-01-27T01:02:58;100940.84;;;2.07;85.82
39699;BME280;25372;50.582;12.250;2024-01-27T01:13:21;100958.25;;;1.92;86.74
39699;BME280;25372;50.582;12.250;2024-01-27T01:23:42;100958.25;;;1.92;87.72
39699;BME280;25372;50.582;12.250;2024-01-27T01:34:05;100976.53;;;1.80;88.23
39699;BME280;25372;50.582;12.250;2024-01-27T01:44:29;100978.22;;;1.83;87.31
39699;BME280;25372;50.582;12.250;2024-01-27T01:54:52;100996.44;;;1.75;86.36
39699;BME280;25372;50.582;12.250;2024-01-27T02:05:13;101002.41;;;1.81;86.01
39699;BME280;25372;50.582;12.250;2024-01-27T02:15:35;100997.31;;;1.72;85.52
39699;BME280;25372;50.582;12.250;2024-01-27T02:25:58;100998.06;;;1.85;84.44
39699;BME280;25372;50.582;12.250;2024-01-27T02:36:19;101002.63;;;1.57;84.58
39699;BME280;25372;50.582;12.250;2024-01-27T02:46:42;101011.28;;;1.54;83.99
39699;BME280;25372;50.582;12.250;2024-01-27T02:57:04;101017.41;;;1.39;84.95
39699;BME280;25372;50.582;12.250;2024-01-27T03:07:26;101013.91;;;1.48;84.56
39699;BME280;25372;50.582;12.250;2024-01-27T03:17:47;101043.25;;;1.50;82.63
39699;BME280;25372;50.582;12.250;2024-01-27T03:28:10;101064.88;;;1.44;83.41
39699;BME280;25372;50.582;12.250;2024-01-27T03:38:31;101071.75;;;1.44;81.99
39699;BME280;25372;50.582;12.250;2024-01-27T03:48:57;101069.97;;;1.53;82.01
39699;BME280;25372;50.582;12.250;2024-01-27T03:59:18;101075.25;;;1.36;82.09
39699;BME280;25372;50.582;12.250;2024-01-27T04:09:41;101078.56;;;1.59;81.42
39699;BME280;25372;50.582;12.250;2024-01-27T04:20:02;101092.28;;;1.75;80.23
39699;BME280;25372;50.582;12.250;2024-01-27T04:30:25;101101.16;;;1.33;82.09
39699;BME280;25372;50.582;12.250;2024-01-27T04:40:46;101100.44;;;0.94;83.71
39699;BME280;25372;50.582;12.250;2024-01-27T04:51:09;101103.03;;;1.02;84.32
39699;BME280;25372;50.582;12.250;2024-01-27T05:01:32;101114.28;;;0.91;84.79
39699;BME280;25372;50.582;12.250;2024-01-27T05:11:54;101114.31;;;0.82;85.81
39699;BME280;25372;50.582;12.250;2024-01-27T05:22:15;101134.00;;;1.22;84.08
39699;BME280;25372;50.582;12.250;2024-01-27T05:32:37;101138.22;;;1.46;82.28
39699;BME280;25372;50.582;12.250;2024-01-27T05:42:58;101154.53;;;1.54;81.88
39699;BME280;25372;50.582;12.250;2024-01-27T05:53:21;101157.16;;;1.53;82.12
39699;BME280;25372;50.582;12.250;2024-01-27T06:03:42;101166.69;;;1.45;82.18
39699;BME280;25372;50.582;12.250;2024-01-27T06:14:05;101171.81;;;1.57;82.79
39699;BME280;25372;50.582;12.250;2024-01-27T06:24:26;101185.59;;;1.65;81.98
39699;BME280;25372;50.582;12.250;2024-01-27T06:34:49;101188.22;;;1.53;82.98
39699;BME280;25372;50.582;12.250;2024-01-27T06:45:10;101217.53;;;1.58;83.26
39699;BME280;25372;50.582;12.250;2024-01-27T06:55:32;101228.72;;;1.70;81.90
39699;BME280;25372;50.582;12.250;2024-01-27T07:05:53;101236.41;;;1.87;81.03
39699;BME280;25372;50.582;12.250;2024-01-27T07:16:15;101261.44;;;1.92;81.65
39699;BME280;25372;50.582;12.250;2024-01-27T07:26:36;101279.50;;;2.06;81.16
39699;BME280;25372;50.582;12.250;2024-01-27T07:36:59;101273.44;;;2.11;80.90
39699;BME280;25372;50.582;12.250;2024-01-27T07:47:20;101281.13;;;2.28;80.25
39699;BME280;25372;50.582;12.250;2024-01-27T07:57:42;101270.69;;;2.34;80.96
39699;BME280;25372;50.582;12.250;2024-01-27T08:08:04;101306.03;;;2.49;80.33
39699;BME280;25372;50.582;12.250;2024-01-27T08:18:26;101294.75;;;2.59;80.25
39699;BME280;25372;50.582;12.250;2024-01-27T08:28:47;101300.66;;;2.77;79.79
39699;BME280;25372;50.582;12.250;2024-01-27T08:39:10;101278.22;;;2.68;78.44
39699;BME280;25372;50.582;12.250;2024-01-27T08:49:32;101340.19;;;3.08;77.99
39699;BME280;25372;50.582;12.250;2024-01-27T08:59:55;101351.44;;;3.11;79.13
39699;BME280;25372;50.582;12.250;2024-01-27T09:10:16;101366.09;;;3.18;78.22
39699;BME280;25372;50.582;12.250;2024-01-27T09:20:38;101365.09;;;3.31;78.10
39699;BME280;25372;50.582;12.250;2024-01-27T09:30:59;101380.25;;;3.75;76.93
39699;BME280;25372;50.582;12.250;2024-01-27T09:41:22;101388.81;;;3.85;76.54
39699;BME280;25372;50.582;12.250;2024-01-27T09:51:43;101380.84;;;4.00;75.62
39699;BME280;25372;50.582;12.250;2024-01-27T10:02:08;101388.50;;;4.13;74.21
39699;BME280;25372;50.582;12.250;2024-01-27T10:12:31;101388.75;;;3.91;75.71
39699;BME280;25372;50.582;12.250;2024-01-27T10:22:55;101383.03;;;4.34;74.24
39699;BME280;25372;50.582;12.250;2024-01-27T10:33:16;101380.44;;;4.33;74.35
39699;BME280;25372;50.582;12.250;2024-01-27T10:43:39;101383.56;;;4.58;73.67
39699;BME280;25372;50.582;12.250;2024-01-27T10:54:02;101398.00;;;4.80;72.96
39699;BME280;25372;50.582;12.250;2024-01-27T11:04:25;101391.97;;;4.79;73.99
39699;BME280;25372;50.582;12.250;2024-01-27T11:14:47;101375.19;;;4.36;75.17
39699;BME280;25372;50.582;12.250;2024-01-27T11:25:14;101404.06;;;4.17;76.43
39699;BME280;25372;50.582;12.250;2024-01-27T11:35:36;101404.16;;;4.10;76.65
39699;BME280;25372;50.582;12.250;2024-01-27T11:45:59;101410.88;;;4.26;76.40
39699;BME280;25372;50.582;12.250;2024-01-27T11:56:20;101408.22;;;4.29;76.10
39699;BME280;25372;50.582;12.250;2024-01-27T12:06:43;101411.31;;;4.58;75.04
39699;BME280;25372;50.582;12.250;2024-01-27T12:17:08;101405.16;;;4.65;73.56
39699;BME280;25372;50.582;12.250;2024-01-27T12:27:30;101424.19;;;4.70;72.41
39699;BME280;25372;50.582;12.250;2024-01-27T12:37:51;101421.41;;;4.83;71.40
39699;BME280;25372;50.582;12.250;2024-01-27T12:48:14;101432.56;;;4.91;72.08
39699;BME280;25372;50.582;12.250;2024-01-27T12:58:36;101443.84;;;4.93;71.65
39699;BME280;25372;50.582;12.250;2024-01-27T13:08:58;101416.66;;;5.11;71.43
39699;BME280;25372;50.582;12.250;2024-01-27T13:19:20;101427.38;;;4.89;70.45
39699;BME280;25372;50.582;12.250;2024-01-27T13:29:42;101438.63;;;4.93;69.57
39699;BME280;25372;50.582;12.250;2024-01-27T13:40:06;101436.03;;;4.92;70.24
39699;BME280;25372;50.582;12.250;2024-01-27T13:50:30;101436.16;;;4.82;71.61
39699;BME280;25372;50.582;12.250;2024-01-27T14:00:51;101432.72;;;4.80;71.12
39699;BME280;25372;50.582;12.250;2024-01-27T14:11:14;101416.50;;;4.61;71.48
39699;BME280;25372;50.582;12.250;2024-01-27T14:21:35;101433.91;;;4.56;72.32
39699;BME280;25372;50.582;12.250;2024-01-27T14:31:58;101439.50;;;4.25;73.28
39699;BME280;25372;50.582;12.250;2024-01-27T14:42:20;101448.25;;;4.17;74.16
39699;BME280;25372;50.582;12.250;2024-01-27T14:52:42;101452.03;;;3.90;75.35
39699;BME280;25372;50.582;12.250;2024-01-27T15:03:03;101469.53;;;3.68;76.93
39699;BME280;25372;50.582;12.250;2024-01-27T15:13:26;101470.66;;;3.35;77.90
39699;BME280;25372;50.582;12.250;2024-01-27T15:23:47;101478.59;;;3.21;79.13
39699;BME280;25372;50.582;12.250;2024-01-27T15:34:09;101496.78;;;3.15;79.09
39699;BME280;25372;50.582;12.250;2024-01-27T15:44:30;101520.19;;;3.06;79.63
39699;BME280;25372;50.582;12.250;2024-01-27T15:54:52;101531.59;;;2.78;80.49
39699;BME280;25372;50.582;12.250;2024-01-27T16:05:14;101549.72;;;2.82;80.63
39699;BME280;25372;50.582;12.250;2024-01-27T16:15:36;101546.41;;;2.31;82.83
39699;BME280;25372;50.582;12.250;2024-01-27T16:25:58;101549.03;;;2.30;83.35
39699;BME280;25372;50.582;12.250;2024-01-27T16:36:20;101575.00;;;2.17;83.70
39699;BME280;25372;50.582;12.250;2024-01-27T16:46:41;101570.66;;;2.19;83.45
39699;BME280;25372;50.582;12.250;2024-01-27T16:57:06;101583.63;;;2.13;83.88
39699;BME280;25372;50.582;12.250;2024-01-27T17:07:27;101577.56;;;2.02;84.41
39699;BME280;25372;50.582;12.250;2024-01-27T17:17:49;101585.34;;;1.86;85.03
39699;BME280;25372;50.582;12.250;2024-01-27T17:28:11;101609.53;;;1.71;85.66
39699;BME280;25372;50.582;12.250;2024-01-27T17:38:34;101606.97;;;1.94;85.28
39699;BME280;25372;50.582;12.250;2024-01-27T17:48:55;101606.91;;;1.57;86.08
39699;BME280;25372;50.582;12.250;2024-01-27T17:59:17;101623.31;;;1.56;86.99
39699;BME280;25372;50.582;12.250;2024-01-27T18:09:38;101631.06;;;1.45;86.91
39699;BME280;25372;50.582;12.250;2024-01-27T18:20:01;101630.19;;;1.38;86.89
39699;BME280;25372;50.582;12.250;2024-01-27T18:30:22;101636.22;;;1.33;87.15
39699;BME280;25372;50.582;12.250;2024-01-27T18:40:44;101628.38;;;1.22;86.75
39699;BME280;25372;50.582;12.250;2024-01-27T18:51:05;101658.59;;;1.17;87.93
39699;BME280;25372;50.582;12.250;2024-01-27T19:01:28;101655.97;;;1.21;87.37
39699;BME280;25372;50.582;12.250;2024-01-27T19:11:49;101656.84;;;1.19;87.04
39699;BME280;25372;50.582;12.250;2024-01-27T19:22:12;101630.16;;;1.35;86.07
39699;BME280;25372;50.582;12.250;2024-01-27T19:32:33;101651.72;;;1.34;85.72
39699;BME280;25372;50.582;12.250;2024-01-27T19:42:56;101677.56;;;1.19;86.36
39699;BME280;25372;50.582;12.250;2024-01-27T19:53:17;101706.00;;;1.14;85.88
39699;BME280;25372;50.582;12.250;2024-01-27T20:03:40;101714.66;;;1.21;86.01
39699;BME280;25372;50.582;12.250;2024-01-27T20:14:02;101703.38;;;1.08;85.34
39699;BME280;25372;50.582;12.250;2024-01-27T20:24:28;101716.00;;;0.61;87.73
39699;BME280;25372;50.582;12.250;2024-01-27T20:34:49;101700.53;;;0.66;87.77
39699;BME280;25372;50.582;12.250;2024-01-27T20:45:11;101716.13;;;0.75;87.69
39699;BME280;25372;50.582;12.250;2024-01-27T20:55:32;101718.75;;;0.80;86.48
39699;BME280;25372;50.582;12.250;2024-01-27T21:05:55;101722.00;;;0.52;87.70
39699;BME280;25372;50.582;12.250;2024-01-27T21:16:16;101727.81;;;0.28;88.41
39699;BME280;25372;50.582;12.250;2024-01-27T21:26:38;101697.47;;;0.08;88.21
39699;BME280;25372;50.582;12.250;2024-01-27T21:37:00;101728.75;;;0.36;88.55
39699;BME280;25372;50.582;12.250;2024-01-27T21:47:22;101723.44;;;0.19;89.05
39699;BME280;25372;50.582;12.250;2024-01-27T21:57:43;101726.00;;;0.19;89.57
39699;BME280;25372;50.582;12.250;2024-01-27T22:08:06;101727.44;;;-0.08;89.25
39699;BME280;25372;50.582;12.250;2024-01-27T22:18:28;101736.97;;;-0.04;89.88
39699;BME280;25372;50.582;12.250;2024-01-27T22:28:51;101722.34;;;-0.02;89.20
39699;BME280;25372;50.582;12.250;2024-01-27T22:39:12;101732.66;;;-0.06;89.07
39699;BME280;25372;50.582;12.250;2024-01-27T22:49:35;101735.09;;;-0.19;90.14
39699;BME280;25372;50.582;12.250;2024-01-27T22:59:56;101727.91;;;-0.43;90.54
39699;BME280;25372;50.582;12.250;2024-01-27T23:10:19;101713.19;;;-0.52;91.66
39699;BME280;25372;50.582;12.250;2024-01-27T23:20:39;101689.69;;;-0.74;92.40
39699;BME280;25372;50.582;12.250;2024-01-27T23:31:03;101702.84;;;-0.55;91.21
39699;BME280;25372;50.582;12.250;2024-01-27T23:41:24;101690.50;;;-0.76;91.79
39699;BME280;25372;50.582;12.250;2024-01-27T23:51:47;101701.59;;;-0.83;92.58
